Time;durP1;ratioP1;P1;durP2;ratioP2;P2;SDS_P1;SDS_P2;PMS_P1;PMS_P2;Temp;Humidity;BMP_temperature;BMP_pressure;BME280_temperature;BME280_humidity;BME280_pressure;Samples;Min_cycle;Max_cycle;Signal;HPM_P1;HPM_P2
2023/08/25 00:00:32;;;;;;;;;;;;;;;;;;5091261;28;19915;-72
2023/08/25 00:04:06;;;;;;;;;;;;;;;;;;5111691;27;20379;-71
2023/08/25 00:07:21;;;;;;;;;;;;;;;;;;5112491;27;20252;-72
2023/08/25 00:11:58;;;;;;;;;;;;;;;;;;5091226;27;19912;-71
2023/08/25 00:16:15;;;;;;;;;;;;;;;;;;5112583;27;19916;-71
2023/08/25 00:18:41;;;;;;;;;;;;;;;;;;5111388;28;19919;-71
2023/08/25 00:21:07;;;;;;;;;;;;;;;;;;5111602;28;19908;-71
2023/08/25 00:23:32;;;;;;;;;;;;;;;;;;5111796;28;19961;-71
2023/08/25 00:25:59;;;;;;;;;;;;;;;;;;5111139;28;19912;-71
2023/08/25 00:28:25;;;;;;;;;;;;;;;;;;5111558;28;19919;-72
2023/08/25 00:30:51;;;;;;;;;;;;;;;;;;5110273;28;19908;-72
2023/08/25 00:36:13;;;;;;;;;;;;;;;;;;5112065;27;19922;-73
2023/08/25 00:39:31;;;;;;;;;;;;;;;;;;5091137;27;19923;-72
2023/08/25 00:41:57;;;;;;;;;;;;;;;;;;5091371;28;19912;-72
2023/08/25 00:44:23;;;;;;;;;;;;;;;;;;5091648;28;19915;-72
2023/08/25 00:47:50;;;;;;;;;;;;;;;;;;5132504;27;19919;-72
2023/08/25 00:50:16;;;;;;;;;;;;;;;;;;5132179;28;20024;-71
2023/08/25 00:52:42;;;;;;;;;;;;;;;;;;5131984;28;20814;-71
2023/08/25 00:57:22;;;;;;;;;;;;;;;;;;5071259;28;19913;-71
2023/08/25 00:59:48;;;;;;;;;;;;;;;;;;5069378;28;19999;-72
2023/08/25 01:02:15;;;;;;;;;;;;;;;;;;5069736;28;19932;-71
2023/08/25 01:04:41;;;;;;;;;;;;;;;;;;5071073;28;19916;-71
2023/08/25 01:07:06;;;;;;;;;;;;;;;;;;5069287;28;19909;-71
2023/08/25 01:09:32;;;;;;;;;;;;;;;;;;5070930;28;19942;-71
2023/08/25 01:11:58;;;;;;;;;;;;;;;;;;5070881;28;19909;-71
2023/08/25 01:14:24;;;;;;;;;;;;;;;;;;5070614;28;19955;-71
2023/08/25 01:18:06;;;;;;;;;;;;;;;;;;5091682;28;19917;-72
2023/08/25 01:20:32;;;;;;;;;;;;;;;;;;5091085;28;19912;-72
2023/08/25 01:22:58;;;;;;;;;;;;;;;;;;5091250;28;19962;-72
2023/08/25 01:25:25;;;;;;;;;;;;;;;;;;5091258;28;19908;-72
2023/08/25 01:27:51;;;;;;;;;;;;;;;;;;5090753;28;19912;-72
2023/08/25 01:32:41;;;;;;;;;;;;;;;;;;5112087;27;19916;-72
2023/08/25 01:35:07;;;;;;;;;;;;;;;;;;5111463;28;20351;-72
2023/08/25 01:39:16;;;;;;;;;;;;;;;;;;5091593;28;19916;-72
2023/08/25 01:41:42;;;;;;;;;;;;;;;;;;5090975;28;19999;-72
2023/08/25 01:44:08;;;;;;;;;;;;;;;;;;5091252;28;20347;-72
2023/08/25 01:51:03;;;;;;;;;;;;;;;;;;5153115;27;20356;-72
2023/08/25 01:53:29;;;;;;;;;;;;;;;;;;5152928;27;19954;-72
2023/08/25 01:55:55;;;;;;;;;;;;;;;;;;5152628;27;20363;-72
2023/08/25 01:58:21;;;;;;;;;;;;;;;;;;5153164;27;19925;-72
2023/08/25 02:00:47;;;;;;;;;;;;;;;;;;5152690;27;19908;-73
2023/08/25 02:03:13;;;;;;;;;;;;;;;;;;5152401;27;19907;-72
2023/08/25 02:05:39;;;;;;;;;;;;;;;;;;5152631;27;19914;-72
2023/08/25 02:08:05;;;;;;;;;;;;;;;;;;5152568;27;19908;-72
2023/08/25 02:10:31;;;;;;;;;;;;;;;;;;5152117;27;20290;-72
2023/08/25 02:14:58;;;;;;;;;;;;;;;;;;5071374;28;19917;-71
2023/08/25 02:19:20;;;;;;;;;;;;;;;;;;5092115;27;19923;-72
2023/08/25 02:21:46;;;;;;;;;;;;;;;;;;5091362;28;20368;-71
2023/08/25 02:25:03;;;;;;;;;;;;;;;;;;5070966;28;19965;-71
2023/08/25 02:27:29;;;;;;;;;;;;;;;;;;5071301;28;19963;-71
2023/08/25 02:30:48;;;;;;;;;;;;;;;;;;5152744;27;19915;-72
2023/08/25 02:33:15;;;;;;;;;;;;;;;;;;5152945;27;20263;-72
2023/08/25 02:35:41;;;;;;;;;;;;;;;;;;5152781;27;19972;-72
2023/08/25 02:38:07;;;;;;;;;;;;;;;;;;5152455;27;19994;-72
2023/08/25 02:43:24;;;;;;;;;;;;;;;;;;5092137;27;19917;-71
2023/08/25 02:48:29;;;;;;;;;;;;;;;;;;5111961;27;19922;-72
2023/08/25 02:52:27;;;;;;;;;;;;;;;;;;5091002;28;19923;-71
2023/08/25 02:54:53;;;;;;;;;;;;;;;;;;5091202;28;19913;-71
2023/08/25 03:00:04;;;;;;;;;;;;;;;;;;5111787;27;19916;-71
2023/08/25 03:03:26;;;;;;;;;;;;;;;;;;5091990;27;19916;-72
2023/08/25 03:05:52;;;;;;;;;;;;;;;;;;5090279;28;19912;-72
2023/08/25 03:08:20;;;;;;;;;;;;;;;;;;5090864;28;19969;-72
2023/08/25 03:10:46;;;;;;;;;;;;;;;;;;5091318;28;19908;-72
2023/08/25 03:15:54;;;;;;;;;;;;;;;;;;5152995;27;19915;-72
2023/08/25 03:18:20;;;;;;;;;;;;;;;;;;5134327;27;20298;-72
2023/08/25 03:20:46;;;;;;;;;;;;;;;;;;5134112;27;19911;-72
2023/08/25 03:23:12;;;;;;;;;;;;;;;;;;5152837;27;20001;-71
2023/08/25 03:25:37;;;;;;;;;;;;;;;;;;5134332;27;19907;-72
2023/08/25 03:28:03;;;;;;;;;;;;;;;;;;5133753;27;19918;-72
2023/08/25 03:30:29;;;;;;;;;;;;;;;;;;5152651;27;19914;-72
2023/08/25 03:35:31;;;;;;;;;;;;;;;;;;5091286;27;19923;-72
2023/08/25 03:37:57;;;;;;;;;;;;;;;;;;5092148;28;20007;-72
2023/08/25 03:40:23;;;;;;;;;;;;;;;;;;5089970;28;19908;-72
2023/08/25 03:45:18;;;;;;;;;;;;;;;;;;5071510;28;19917;-72
2023/08/25 03:47:43;;;;;;;;;;;;;;;;;;5069925;28;20432;-72
2023/08/25 03:50:10;;;;;;;;;;;;;;;;;;5070770;28;20430;-72
2023/08/25 03:52:36;;;;;;;;;;;;;;;;;;5071652;28;19913;-72
2023/08/25 03:55:02;;;;;;;;;;;;;;;;;;5070968;28;20440;-72
2023/08/25 03:59:00;;;;;;;;;;;;;;;;;;5091823;27;19916;-72
2023/08/25 04:03:07;;;;;;;;;;;;;;;;;;5091431;27;19938;-72
2023/08/25 04:06:58;;;;;;;;;;;;;;;;;;5091593;27;19923;-72
2023/08/25 04:09:24;;;;;;;;;;;;;;;;;;5090944;28;19995;-72
2023/08/25 04:11:53;;;;;;;;;;;;;;;;;;5091285;28;19909;-73
2023/08/25 04:14:19;;;;;;;;;;;;;;;;;;5091132;28;19912;-71
2023/08/25 04:16:45;;;;;;;;;;;;;;;;;;5090849;28;19909;-72
2023/08/25 04:19:26;;;;;;;;;;;;;;;;;;5091857;27;20366;-71
2023/08/25 04:21:52;;;;;;;;;;;;;;;;;;5089912;28;19995;-72
2023/08/25 04:24:18;;;;;;;;;;;;;;;;;;5090908;28;19915;-72
2023/08/25 04:26:44;;;;;;;;;;;;;;;;;;5091200;28;20019;-72
2023/08/25 04:29:32;;;;;;;;;;;;;;;;;;5153334;27;19915;-72
2023/08/25 04:32:42;;;;;;;;;;;;;;;;;;5111691;27;19916;-72
2023/08/25 04:35:08;;;;;;;;;;;;;;;;;;5111744;28;19999;-72
2023/08/25 04:39:43;;;;;;;;;;;;;;;;;;5070904;28;19923;-71
2023/08/25 04:43:41;;;;;;;;;;;;;;;;;;5092118;27;19923;-72
2023/08/25 04:46:07;;;;;;;;;;;;;;;;;;5089607;28;20006;-71
2023/08/25 04:50:43;;;;;;;;;;;;;;;;;;5132609;27;19912;-71
2023/08/25 04:53:09;;;;;;;;;;;;;;;;;;5131844;27;20010;-72
2023/08/25 04:55:34;;;;;;;;;;;;;;;;;;5132179;27;19908;-72
2023/08/25 04:58:00;;;;;;;;;;;;;;;;;;5132201;27;20007;-72
2023/08/25 05:00:29;;;;;;;;;;;;;;;;;;5131623;27;19947;-71
2023/08/25 05:04:38;;;;;;;;;;;;;;;;;;5111804;27;19922;-72
2023/08/25 05:07:46;;;;;;;;;;;;;;;;;;5100909;27;2062187;-71
2023/08/25 05:10:50;;;;;;;;;;;;;;;;;;5112576;27;19922;-71
2023/08/25 05:13:16;;;;;;;;;;;;;;;;;;5111303;28;20012;-72
2023/08/25 05:15:42;;;;;;;;;;;;;;;;;;5111717;28;19912;-71
2023/08/25 05:18:08;;;;;;;;;;;;;;;;;;5111527;28;19908;-71
2023/08/25 05:21:43;;;;;;;;;;;;;;;;;;5111256;27;19912;-71
2023/08/25 05:24:09;;;;;;;;;;;;;;;;;;5111673;28;20014;-72
2023/08/25 05:26:57;;;;;;;;;;;;;;;;;;5111992;27;19930;-71
2023/08/25 05:29:23;;;;;;;;;;;;;;;;;;5111697;28;19912;-72
2023/08/25 05:31:49;;;;;;;;;;;;;;;;;;5111516;28;20408;-72
2023/08/25 05:34:43;;;;;;;;;;;;;;;;;;5090543;27;20386;-72
2023/08/25 05:37:09;;;;;;;;;;;;;;;;;;5090462;28;19912;-71
2023/08/25 05:39:35;;;;;;;;;;;;;;;;;;5090312;28;19954;-71
2023/08/25 05:47:03;;;;;;;;;;;;;;;;;;5110799;27;19916;-71
2023/08/25 05:49:29;;;;;;;;;;;;;;;;;;5111301;28;19938;-71
2023/08/25 05:51:55;;;;;;;;;;;;;;;;;;5111038;28;19916;-69
2023/08/25 05:54:21;;;;;;;;;;;;;;;;;;5115947;28;19911;-70
2023/08/25 05:56:47;;;;;;;;;;;;;;;;;;5115035;28;20375;-69
2023/08/25 05:59:13;;;;;;;;;;;;;;;;;;5118539;28;19912;-70
2023/08/25 06:01:42;;;;;;;;;;;;;;;;;;5123388;28;19912;-68
2023/08/25 06:04:08;;;;;;;;;;;;;;;;;;5115861;28;19911;-69
2023/08/25 06:06:34;;;;;;;;;;;;;;;;;;5111143;28;20096;-68
2023/08/25 06:09:00;;;;;;;;;;;;;;;;;;5122459;27;19908;-68
2023/08/25 06:13:14;;;;;;;;;;;;;;;;;;5126160;27;19922;-68
2023/08/25 06:15:40;;;;;;;;;;;;;;;;;;5116457;28;19915;-69
2023/08/25 06:19:45;;;;;;;;;;;;;;;;;;5115882;27;19920;-69
2023/08/25 06:22:11;;;;;;;;;;;;;;;;;;5116496;27;19918;-70
2023/08/25 06:24:37;;;;;;;;;;;;;;;;;;5123207;27;20341;-69
2023/08/25 06:27:03;;;;;;;;;;;;;;;;;;5128728;27;20351;-69
2023/08/25 06:29:32;;;;;;;;;;;;;;;;;;5127480;27;20367;-69
2023/08/25 06:31:58;;;;;;;;;;;;;;;;;;5128251;27;20328;-69
2023/08/25 06:34:24;;;;;;;;;;;;;;;;;;5127028;27;19920;-69
2023/08/25 06:40:40;;;;;;;;;;;;;;;;;;5067079;28;19924;-70
2023/08/25 06:43:06;;;;;;;;;;;;;;;;;;5066854;28;19919;-70
2023/08/25 06:45:32;;;;;;;;;;;;;;;;;;5066368;28;19908;-70
2023/08/25 06:47:58;;;;;;;;;;;;;;;;;;5067132;28;19942;-70
2023/08/25 06:50:24;;;;;;;;;;;;;;;;;;5064619;28;20381;-68
2023/08/25 06:52:50;;;;;;;;;;;;;;;;;;5066689;28;19917;-67
2023/08/25 06:55:16;;;;;;;;;;;;;;;;;;5066657;28;19920;-68
2023/08/25 06:57:42;;;;;;;;;;;;;;;;;;5067523;28;19913;-67
2023/08/25 07:01:42;;;;;;;;;;;;;;;;;;5088414;27;19916;-67
2023/08/25 07:04:08;;;;;;;;;;;;;;;;;;5088717;28;19913;-67
2023/08/25 07:06:36;;;;;;;;;;;;;;;;;;5088747;28;19916;-67
2023/08/25 07:09:02;;;;;;;;;;;;;;;;;;5086649;28;19912;-68
2023/08/25 07:11:28;;;;;;;;;;;;;;;;;;5087658;28;19912;-69
2023/08/25 07:13:54;;;;;;;;;;;;;;;;;;5088913;28;19908;-69
2023/08/25 07:16:20;;;;;;;;;;;;;;;;;;5085404;28;20340;-69
2023/08/25 07:18:46;;;;;;;;;;;;;;;;;;5087702;28;19951;-69
2023/08/25 07:21:12;;;;;;;;;;;;;;;;;;5085903;28;19929;-71
2023/08/25 07:23:38;;;;;;;;;;;;;;;;;;5087671;28;19912;-69
2023/08/25 07:26:04;;;;;;;;;;;;;;;;;;5086413;28;19913;-69
2023/08/25 07:28:30;;;;;;;;;;;;;;;;;;5086865;28;20310;-69
2023/08/25 07:30:56;;;;;;;;;;;;;;;;;;5088775;28;20276;-66
2023/08/25 07:33:22;;;;;;;;;;;;;;;;;;5088278;28;20308;-69
2023/08/25 07:35:48;;;;;;;;;;;;;;;;;;5087318;28;20046;-69
2023/08/25 07:38:14;;;;;;;;;;;;;;;;;;5085837;28;19920;-69
2023/08/25 07:40:40;;;;;;;;;;;;;;;;;;5082789;28;19932;-68
2023/08/25 07:43:06;;;;;;;;;;;;;;;;;;5079005;28;19912;-69
2023/08/25 07:45:32;;;;;;;;;;;;;;;;;;5078641;28;20584;-69
2023/08/25 07:47:59;;;;;;;;;;;;;;;;;;5084017;28;19920;-70
2023/08/25 07:50:25;;;;;;;;;;;;;;;;;;5088925;28;19919;-70
2023/08/25 07:52:51;;;;;;;;;;;;;;;;;;5090202;28;19931;-69
2023/08/25 07:55:17;;;;;;;;;;;;;;;;;;5089391;28;19978;-69
2023/08/25 07:57:43;;;;;;;;;;;;;;;;;;5089212;28;20008;-69
2023/08/25 08:00:14;;;;;;;;;;;;;;;;;;5096738;28;19930;-68
2023/08/25 08:02:42;;;;;;;;;;;;;;;;;;5109928;28;19912;-68
2023/08/25 08:05:08;;;;;;;;;;;;;;;;;;5108854;28;19947;-69
2023/08/25 08:07:34;;;;;;;;;;;;;;;;;;5108155;28;19944;-69
2023/08/25 08:10:00;;;;;;;;;;;;;;;;;;5088864;28;19916;-68
2023/08/25 08:12:26;;;;;;;;;;;;;;;;;;5097708;28;19923;-69
2023/08/25 08:14:52;;;;;;;;;;;;;;;;;;5093767;28;19915;-68
2023/08/25 08:17:18;;;;;;;;;;;;;;;;;;5098988;28;19959;-69
2023/08/25 08:19:44;;;;;;;;;;;;;;;;;;5094526;28;19912;-70
2023/08/25 08:22:10;;;;;;;;;;;;;;;;;;5096071;28;19998;-68
2023/08/25 08:24:36;;;;;;;;;;;;;;;;;;5077051;28;19958;-69
2023/08/25 08:27:02;;;;;;;;;;;;;;;;;;5095676;28;20371;-70
2023/08/25 08:29:28;;;;;;;;;;;;;;;;;;5077473;28;19957;-69
2023/08/25 08:31:57;;;;;;;;;;;;;;;;;;5096107;28;20348;-69
2023/08/25 08:34:23;;;;;;;;;;;;;;;;;;5095495;28;19908;-69
2023/08/25 08:36:50;;;;;;;;;;;;;;;;;;5094130;28;19930;-69
2023/08/25 08:39:16;;;;;;;;;;;;;;;;;;5095618;28;20280;-68
2023/08/25 08:41:42;;;;;;;;;;;;;;;;;;5095142;28;19912;-69
2023/08/25 08:44:08;;;;;;;;;;;;;;;;;;5093803;28;19989;-69
2023/08/25 08:46:34;;;;;;;;;;;;;;;;;;5076887;28;19912;-69
2023/08/25 08:49:00;;;;;;;;;;;;;;;;;;5094536;28;19908;-67
2023/08/25 08:51:26;;;;;;;;;;;;;;;;;;5094385;28;19923;-68
2023/08/25 08:53:52;;;;;;;;;;;;;;;;;;5095021;28;19914;-67
2023/08/25 08:56:18;;;;;;;;;;;;;;;;;;5094832;28;20264;-68
2023/08/25 08:58:44;;;;;;;;;;;;;;;;;;5093010;28;19919;-68
2023/08/25 09:01:10;;;;;;;;;;;;;;;;;;5094527;28;19945;-69
2023/08/25 09:03:36;;;;;;;;;;;;;;;;;;5094821;28;19922;-69
2023/08/25 09:06:03;;;;;;;;;;;;;;;;;;5094952;28;19908;-69
2023/08/25 09:08:29;;;;;;;;;;;;;;;;;;5077152;28;19950;-69
2023/08/25 09:10:55;;;;;;;;;;;;;;;;;;5076045;28;19912;-68
2023/08/25 09:13:21;;;;;;;;;;;;;;;;;;5074316;28;20051;-68
2023/08/25 09:15:49;;;;;;;;;;;;;;;;;;5075048;28;19908;-68
2023/08/25 09:18:15;;;;;;;;;;;;;;;;;;5074154;28;19912;-67
2023/08/25 09:20:41;;;;;;;;;;;;;;;;;;5076179;28;19920;-68
2023/08/25 09:23:08;;;;;;;;;;;;;;;;;;5075421;28;20007;-69
2023/08/25 09:25:34;;;;;;;;;;;;;;;;;;5094958;28;19908;-68
2023/08/25 09:28:00;;;;;;;;;;;;;;;;;;5076033;28;20341;-69
2023/08/25 09:30:26;;;;;;;;;;;;;;;;;;5094566;28;19912;-68
2023/08/25 09:32:52;;;;;;;;;;;;;;;;;;5094063;28;19908;-68
2023/08/25 09:35:21;;;;;;;;;;;;;;;;;;5094408;28;19915;-67
2023/08/25 09:37:47;;;;;;;;;;;;;;;;;;5087659;28;19912;-67
2023/08/25 09:40:13;;;;;;;;;;;;;;;;;;5093174;28;19927;-69
2023/08/25 09:42:40;;;;;;;;;;;;;;;;;;5094238;28;20343;-67
2023/08/25 09:45:06;;;;;;;;;;;;;;;;;;5094385;28;19908;-67
2023/08/25 09:47:32;;;;;;;;;;;;;;;;;;5096766;28;19919;-67
2023/08/25 09:49:58;;;;;;;;;;;;;;;;;;5094498;28;19960;-67
2023/08/25 09:52:25;;;;;;;;;;;;;;;;;;5093596;28;19996;-67
2023/08/25 09:54:51;;;;;;;;;;;;;;;;;;5080404;28;19918;-68
2023/08/25 09:57:21;;;;;;;;;;;;;;;;;;5081402;28;19908;-67
2023/08/25 09:59:47;;;;;;;;;;;;;;;;;;5079304;28;20020;-66
2023/08/25 10:02:13;;;;;;;;;;;;;;;;;;5054913;28;19915;-67
2023/08/25 10:04:39;;;;;;;;;;;;;;;;;;5072274;28;19919;-68
2023/08/25 10:07:05;;;;;;;;;;;;;;;;;;5082923;28;19950;-68
2023/08/25 10:09:31;;;;;;;;;;;;;;;;;;5087339;28;19912;-68
2023/08/25 10:11:57;;;;;;;;;;;;;;;;;;5093445;28;19912;-68
2023/08/25 10:14:23;;;;;;;;;;;;;;;;;;5065436;28;19923;-68
2023/08/25 10:16:52;;;;;;;;;;;;;;;;;;5064112;28;20019;-68
2023/08/25 10:19:18;;;;;;;;;;;;;;;;;;5078188;28;20015;-68
2023/08/25 10:21:44;;;;;;;;;;;;;;;;;;5093144;28;19955;-68
2023/08/25 10:24:10;;;;;;;;;;;;;;;;;;5088310;28;19932;-69
2023/08/25 10:26:37;;;;;;;;;;;;;;;;;;5088766;28;19912;-69
2023/08/25 10:29:03;;;;;;;;;;;;;;;;;;5074973;28;20443;-69
2023/08/25 10:31:30;;;;;;;;;;;;;;;;;;5093644;28;20002;-69
2023/08/25 10:33:56;;;;;;;;;;;;;;;;;;5093683;28;19909;-69
2023/08/25 10:36:22;;;;;;;;;;;;;;;;;;5093262;28;19914;-70
2023/08/25 10:38:48;;;;;;;;;;;;;;;;;;5093491;28;20296;-68
2023/08/25 10:41:14;;;;;;;;;;;;;;;;;;5093114;28;19927;-69
2023/08/25 10:43:40;;;;;;;;;;;;;;;;;;5093142;28;20379;-70
2023/08/25 10:46:06;;;;;;;;;;;;;;;;;;5092797;28;20010;-69
2023/08/25 10:48:32;;;;;;;;;;;;;;;;;;5092034;28;19933;-70
2023/08/25 10:50:58;;;;;;;;;;;;;;;;;;5083194;28;19919;-69
2023/08/25 10:53:24;;;;;;;;;;;;;;;;;;5089460;28;20501;-69
2023/08/25 10:55:50;;;;;;;;;;;;;;;;;;5089859;28;19919;-70
2023/08/25 10:58:16;;;;;;;;;;;;;;;;;;5071140;28;19941;-68
2023/08/25 11:00:43;;;;;;;;;;;;;;;;;;5081176;28;19965;-69
2023/08/25 11:03:09;;;;;;;;;;;;;;;;;;5077362;28;20012;-68
2023/08/25 11:05:35;;;;;;;;;;;;;;;;;;5071518;28;19991;-68
2023/08/25 11:08:04;;;;;;;;;;;;;;;;;;5085916;28;20368;-68
2023/08/25 11:10:30;;;;;;;;;;;;;;;;;;5082965;28;19970;-69
2023/08/25 11:12:56;;;;;;;;;;;;;;;;;;5081990;28;19916;-69
2023/08/25 11:15:22;;;;;;;;;;;;;;;;;;5063881;28;19947;-69
2023/08/25 11:17:48;;;;;;;;;;;;;;;;;;5082213;28;19944;-69
2023/08/25 11:20:14;;;;;;;;;;;;;;;;;;5083548;28;19920;-69
2023/08/25 11:22:40;;;;;;;;;;;;;;;;;;5082013;28;19954;-69
2023/08/25 11:25:06;;;;;;;;;;;;;;;;;;5084462;28;19916;-69
2023/08/25 11:27:32;;;;;;;;;;;;;;;;;;5057929;28;19958;-70
2023/08/25 11:29:58;;;;;;;;;;;;;;;;;;5085423;28;19917;-69
2023/08/25 11:32:24;;;;;;;;;;;;;;;;;;5064090;28;19908;-69
2023/08/25 11:34:50;;;;;;;;;;;;;;;;;;5082965;28;19984;-67
2023/08/25 11:37:16;;;;;;;;;;;;;;;;;;5073995;28;19915;-68
2023/08/25 11:39:42;;;;;;;;;;;;;;;;;;5091676;28;19916;-69
2023/08/25 11:42:08;;;;;;;;;;;;;;;;;;5067941;28;19956;-70
2023/08/25 11:44:34;;;;;;;;;;;;;;;;;;5079763;28;19966;-70
2023/08/25 11:47:00;;;;;;;;;;;;;;;;;;5082310;28;19916;-70
2023/08/25 11:49:26;;;;;;;;;;;;;;;;;;5088180;28;19912;-71
2023/08/25 11:51:52;;;;;;;;;;;;;;;;;;5078949;28;19912;-71
2023/08/25 11:54:18;;;;;;;;;;;;;;;;;;5095488;28;19919;-71
2023/08/25 11:56:44;;;;;;;;;;;;;;;;;;5095936;28;20364;-70
2023/08/25 11:59:11;;;;;;;;;;;;;;;;;;5095134;28;20276;-70
2023/08/25 12:01:37;;;;;;;;;;;;;;;;;;5090093;28;19928;-72
2023/08/25 12:04:03;;;;;;;;;;;;;;;;;;5096516;28;19918;-72
2023/08/25 12:06:29;;;;;;;;;;;;;;;;;;5094810;28;19991;-72
2023/08/25 12:08:55;;;;;;;;;;;;;;;;;;5094937;28;19908;-72
2023/08/25 12:11:21;;;;;;;;;;;;;;;;;;5094789;28;19914;-72
2023/08/25 12:13:47;;;;;;;;;;;;;;;;;;5095550;28;19947;-72
2023/08/25 12:16:13;;;;;;;;;;;;;;;;;;5094760;28;19951;-72
2023/08/25 12:18:40;;;;;;;;;;;;;;;;;;5094605;28;19930;-72
2023/08/25 12:21:06;;;;;;;;;;;;;;;;;;5094894;28;20032;-72
2023/08/25 12:23:32;;;;;;;;;;;;;;;;;;5095319;28;19963;-72
2023/08/25 12:25:58;;;;;;;;;;;;;;;;;;5096170;28;19947;-72
2023/08/25 12:28:24;;;;;;;;;;;;;;;;;;5095855;28;19953;-72
2023/08/25 12:30:50;;;;;;;;;;;;;;;;;;5095435;28;19915;-73
2023/08/25 12:33:17;;;;;;;;;;;;;;;;;;5096475;28;19908;-72
2023/08/25 12:35:42;;;;;;;;;;;;;;;;;;5095899;28;19958;-72
2023/08/25 12:38:08;;;;;;;;;;;;;;;;;;5096125;28;19947;-72
2023/08/25 12:40:36;;;;;;;;;;;;;;;;;;5095960;28;19916;-72
2023/08/25 12:43:04;;;;;;;;;;;;;;;;;;5095660;28;20020;-72
2023/08/25 12:45:29;;;;;;;;;;;;;;;;;;5096527;28;20422;-72
2023/08/25 12:47:55;;;;;;;;;;;;;;;;;;5096079;28;19908;-72
2023/08/25 12:50:21;;;;;;;;;;;;;;;;;;5095649;28;19912;-72
2023/08/25 12:52:47;;;;;;;;;;;;;;;;;;5096325;28;20283;-72
2023/08/25 12:55:14;;;;;;;;;;;;;;;;;;5077803;28;19934;-72
2023/08/25 12:57:40;;;;;;;;;;;;;;;;;;5095462;28;20013;-72
2023/08/25 13:00:07;;;;;;;;;;;;;;;;;;5095574;28;19929;-72
2023/08/25 13:02:33;;;;;;;;;;;;;;;;;;5095899;28;19915;-72
2023/08/25 13:04:59;;;;;;;;;;;;;;;;;;5095612;28;19912;-72
2023/08/25 13:07:25;;;;;;;;;;;;;;;;;;5095665;28;20368;-72
2023/08/25 13:09:51;;;;;;;;;;;;;;;;;;5095759;28;20304;-72
2023/08/25 13:12:17;;;;;;;;;;;;;;;;;;5095289;28;19909;-72
2023/08/25 13:14:43;;;;;;;;;;;;;;;;;;5095614;28;20010;-73
2023/08/25 13:17:09;;;;;;;;;;;;;;;;;;5095569;28;20084;-72
2023/08/25 13:19:36;;;;;;;;;;;;;;;;;;5095186;28;19908;-73
2023/08/25 13:22:02;;;;;;;;;;;;;;;;;;5077959;28;19999;-71
2023/08/25 13:24:28;;;;;;;;;;;;;;;;;;5077446;28;19943;-71
2023/08/25 13:26:54;;;;;;;;;;;;;;;;;;5096159;28;19953;-73
2023/08/25 13:29:20;;;;;;;;;;;;;;;;;;5077285;28;19912;-72
2023/08/25 13:31:46;;;;;;;;;;;;;;;;;;5095216;28;19954;-72
2023/08/25 13:34:12;;;;;;;;;;;;;;;;;;5094837;28;19915;-72
2023/08/25 13:36:38;;;;;;;;;;;;;;;;;;5095017;28;19908;-72
2023/08/25 13:39:04;;;;;;;;;;;;;;;;;;5094992;28;20012;-72
2023/08/25 13:41:30;;;;;;;;;;;;;;;;;;5076764;28;19928;-72
2023/08/25 13:43:56;;;;;;;;;;;;;;;;;;5095036;28;19931;-72
2023/08/25 13:46:22;;;;;;;;;;;;;;;;;;5094497;28;19931;-71
2023/08/25 13:48:49;;;;;;;;;;;;;;;;;;5076765;28;20271;-72
2023/08/25 13:51:15;;;;;;;;;;;;;;;;;;5094977;28;19915;-72
2023/08/25 13:53:41;;;;;;;;;;;;;;;;;;5094536;28;19999;-71
2023/08/25 13:56:07;;;;;;;;;;;;;;;;;;5076663;28;19908;-71
2023/08/25 13:58:33;;;;;;;;;;;;;;;;;;5076637;28;20417;-71
2023/08/25 14:00:59;;;;;;;;;;;;;;;;;;5094155;28;20407;-72
2023/08/25 14:03:26;;;;;;;;;;;;;;;;;;5094751;28;20332;-72
2023/08/25 14:05:52;;;;;;;;;;;;;;;;;;5094773;28;19908;-72
2023/08/25 14:08:18;;;;;;;;;;;;;;;;;;5076032;28;20336;-71
2023/08/25 14:10:44;;;;;;;;;;;;;;;;;;5094228;28;19962;-72
2023/08/25 14:13:10;;;;;;;;;;;;;;;;;;5094483;28;19951;-72
2023/08/25 14:15:36;;;;;;;;;;;;;;;;;;5076085;28;19908;-72
2023/08/25 14:18:02;;;;;;;;;;;;;;;;;;5094486;28;19915;-71
2023/08/25 14:20:28;;;;;;;;;;;;;;;;;;5094365;28;19916;-72
2023/08/25 14:22:54;;;;;;;;;;;;;;;;;;5093973;28;20283;-71
2023/08/25 14:25:20;;;;;;;;;;;;;;;;;;5094303;28;19908;-71
2023/08/25 14:27:46;;;;;;;;;;;;;;;;;;5094831;28;19908;-71
2023/08/25 14:30:12;;;;;;;;;;;;;;;;;;5075759;28;19908;-71
2023/08/25 14:32:38;;;;;;;;;;;;;;;;;;5094219;28;19934;-71
2023/08/25 14:35:04;;;;;;;;;;;;;;;;;;5094253;28;19915;-72
2023/08/25 14:37:30;;;;;;;;;;;;;;;;;;5093838;28;20377;-72
2023/08/25 14:39:56;;;;;;;;;;;;;;;;;;5094005;28;19911;-72
2023/08/25 14:42:22;;;;;;;;;;;;;;;;;;5094073;28;20303;-72
2023/08/25 14:44:48;;;;;;;;;;;;;;;;;;5093632;28;19936;-72
2023/08/25 14:47:14;;;;;;;;;;;;;;;;;;5093997;28;19939;-72
2023/08/25 14:49:40;;;;;;;;;;;;;;;;;;5093706;28;19920;-71
2023/08/25 14:52:06;;;;;;;;;;;;;;;;;;5075837;28;19942;-72
2023/08/25 14:54:32;;;;;;;;;;;;;;;;;;5093980;28;20291;-71
2023/08/25 14:56:58;;;;;;;;;;;;;;;;;;5093542;28;19908;-72
2023/08/25 14:59:24;;;;;;;;;;;;;;;;;;5093844;28;19914;-71
2023/08/25 15:01:50;;;;;;;;;;;;;;;;;;5094017;28;19966;-72
2023/08/25 15:04:15;;;;;;;;;;;;;;;;;;5093626;28;19954;-71
2023/08/25 15:06:42;;;;;;;;;;;;;;;;;;5075703;28;20363;-72
2023/08/25 15:09:08;;;;;;;;;;;;;;;;;;5093749;28;19908;-72
2023/08/25 15:11:34;;;;;;;;;;;;;;;;;;5093432;28;19934;-72
2023/08/25 15:14:00;;;;;;;;;;;;;;;;;;5093764;28;19957;-72
2023/08/25 15:16:26;;;;;;;;;;;;;;;;;;5093684;28;20005;-72
2023/08/25 15:18:52;;;;;;;;;;;;;;;;;;5075216;28;19908;-72
2023/08/25 15:21:18;;;;;;;;;;;;;;;;;;5093948;28;20002;-72
2023/08/25 15:23:44;;;;;;;;;;;;;;;;;;5097669;28;19961;-72
2023/08/25 15:26:10;;;;;;;;;;;;;;;;;;5097313;28;19978;-71
2023/08/25 15:28:36;;;;;;;;;;;;;;;;;;5098021;28;19908;-72
2023/08/25 15:31:04;;;;;;;;;;;;;;;;;;5098098;28;19908;-72
2023/08/25 15:33:30;;;;;;;;;;;;;;;;;;5097575;28;19918;-72
2023/08/25 15:35:56;;;;;;;;;;;;;;;;;;5079523;28;20006;-72
2023/08/25 15:38:23;;;;;;;;;;;;;;;;;;5097769;28;20390;-72
2023/08/25 15:40:49;;;;;;;;;;;;;;;;;;5097085;28;19916;-72
2023/08/25 15:43:15;;;;;;;;;;;;;;;;;;5097944;28;20359;-72
2023/08/25 15:45:47;;;;;;;;;;;;;;;;;;5097208;28;20375;-72
2023/08/25 15:48:13;;;;;;;;;;;;;;;;;;5097343;28;20268;-71
2023/08/25 15:50:39;;;;;;;;;;;;;;;;;;5097262;28;19934;-72
2023/08/25 15:53:05;;;;;;;;;;;;;;;;;;5096730;28;20275;-71
2023/08/25 15:55:31;;;;;;;;;;;;;;;;;;5097145;28;20295;-71
2023/08/25 15:57:57;;;;;;;;;;;;;;;;;;5097251;28;19977;-72
2023/08/25 16:00:24;;;;;;;;;;;;;;;;;;5096113;28;19920;-72
2023/08/25 16:02:50;;;;;;;;;;;;;;;;;;5097036;28;20002;-72
2023/08/25 16:05:16;;;;;;;;;;;;;;;;;;5096978;28;19944;-72
2023/08/25 16:07:41;;;;;;;;;;;;;;;;;;5096469;28;20006;-72
2023/08/25 16:10:07;;;;;;;;;;;;;;;;;;5096933;28;19908;-72
2023/08/25 16:12:33;;;;;;;;;;;;;;;;;;5096735;28;19912;-72
2023/08/25 16:14:59;;;;;;;;;;;;;;;;;;5096418;28;19966;-72
2023/08/25 16:17:25;;;;;;;;;;;;;;;;;;5096702;28;19912;-72
2023/08/25 16:19:51;;;;;;;;;;;;;;;;;;5096621;28;19912;-72
2023/08/25 16:22:17;;;;;;;;;;;;;;;;;;5096181;28;19912;-72
2023/08/25 16:24:43;;;;;;;;;;;;;;;;;;5096618;28;19912;-72
2023/08/25 16:27:09;;;;;;;;;;;;;;;;;;5078436;28;19908;-72
2023/08/25 16:29:35;;;;;;;;;;;;;;;;;;5096266;28;19944;-72
2023/08/25 16:32:03;;;;;;;;;;;;;;;;;;5095925;28;20277;-72
2023/08/25 16:34:29;;;;;;;;;;;;;;;;;;5096700;28;19908;-72
2023/08/25 16:36:55;;;;;;;;;;;;;;;;;;5096005;28;20019;-72
2023/08/25 16:39:21;;;;;;;;;;;;;;;;;;5096444;28;20287;-72
2023/08/25 16:41:47;;;;;;;;;;;;;;;;;;5096236;28;19928;-72
2023/08/25 16:44:13;;;;;;;;;;;;;;;;;;5095908;28;19908;-72
2023/08/25 16:46:39;;;;;;;;;;;;;;;;;;5096320;28;19908;-73
2023/08/25 16:49:05;;;;;;;;;;;;;;;;;;5095753;28;19931;-73
2023/08/25 16:51:31;;;;;;;;;;;;;;;;;;5096059;28;20009;-71
2023/08/25 16:53:57;;;;;;;;;;;;;;;;;;5096040;28;19958;-70
2023/08/25 16:56:23;;;;;;;;;;;;;;;;;;5095505;28;20309;-70
2023/08/25 16:58:52;;;;;;;;;;;;;;;;;;5096127;28;20386;-71
2023/08/25 17:01:18;;;;;;;;;;;;;;;;;;5095620;28;19943;-70
2023/08/25 17:03:44;;;;;;;;;;;;;;;;;;5095421;28;19995;-71
2023/08/25 17:06:10;;;;;;;;;;;;;;;;;;5095881;28;19958;-73
2023/08/25 17:08:36;;;;;;;;;;;;;;;;;;5096012;28;19999;-72
2023/08/25 17:11:02;;;;;;;;;;;;;;;;;;5095480;28;19963;-72
2023/08/25 17:13:28;;;;;;;;;;;;;;;;;;5095703;28;19908;-72
2023/08/25 17:15:54;;;;;;;;;;;;;;;;;;5095893;28;19933;-72
2023/08/25 17:18:20;;;;;;;;;;;;;;;;;;5095263;28;20329;-73
2023/08/25 17:20:46;;;;;;;;;;;;;;;;;;5095539;28;20331;-72
2023/08/25 17:23:12;;;;;;;;;;;;;;;;;;5095513;28;20295;-72
2023/08/25 17:25:38;;;;;;;;;;;;;;;;;;5095303;28;19915;-72
2023/08/25 17:28:04;;;;;;;;;;;;;;;;;;5095382;28;19908;-72
2023/08/25 17:30:30;;;;;;;;;;;;;;;;;;5095252;28;19955;-73
2023/08/25 17:32:56;;;;;;;;;;;;;;;;;;5076611;28;20004;-73
2023/08/25 17:35:22;;;;;;;;;;;;;;;;;;5095300;28;19954;-72
2023/08/25 17:37:48;;;;;;;;;;;;;;;;;;5077142;28;19908;-73
2023/08/25 17:40:14;;;;;;;;;;;;;;;;;;5094814;28;20385;-72
2023/08/25 17:42:40;;;;;;;;;;;;;;;;;;5095030;28;19916;-72
2023/08/25 17:45:06;;;;;;;;;;;;;;;;;;5094226;28;19916;-72
2023/08/25 17:47:32;;;;;;;;;;;;;;;;;;5076471;28;20344;-72
2023/08/25 17:49:58;;;;;;;;;;;;;;;;;;5095470;28;19909;-72
2023/08/25 17:52:24;;;;;;;;;;;;;;;;;;5094444;28;19909;-72
2023/08/25 17:54:50;;;;;;;;;;;;;;;;;;5094826;28;19912;-72